createdAt,value
2018-09-28T00:01:26.219Z,3.23
2018-09-28T00:03:55.298Z,3.53
2018-09-28T00:06:24.220Z,3.57
2018-09-28T00:08:53.174Z,2.83
2018-09-28T00:11:22.469Z,3.70
2018-09-28T00:13:51.342Z,3.70
2018-09-28T00:16:20.149Z,2.77
2018-09-28T00:18:48.882Z,3.20
2018-09-28T00:21:17.738Z,3.73
2018-09-28T00:23:46.434Z,3.30
2018-09-28T00:26:15.243Z,3.37
2018-09-28T00:28:44.071Z,3.43
2018-09-28T00:31:12.915Z,3.10
2018-09-28T00:33:41.721Z,3.40
2018-09-28T00:36:10.847Z,2.80
2018-09-28T00:38:39.668Z,3.03
2018-09-28T00:41:08.504Z,3.10
2018-09-28T00:43:37.355Z,2.80
2018-09-28T00:46:06.196Z,3.03
2018-09-28T00:48:35.056Z,3.20
2018-09-28T00:51:03.875Z,3.43
2018-09-28T00:53:32.721Z,3.10
2018-09-28T00:56:01.546Z,3.57
2018-09-28T00:58:30.474Z,3.70
2018-09-28T01:00:59.755Z,3.20
2018-09-28T01:03:28.590Z,3.13
2018-09-28T01:05:57.366Z,3.20
2018-09-28T01:08:26.287Z,3.30
2018-09-28T01:10:55.150Z,3.27
2018-09-28T01:13:24.051Z,3.10
2018-09-28T01:15:52.876Z,3.37
2018-09-28T01:18:21.678Z,3.23
2018-09-28T01:20:50.433Z,3.23
2018-09-28T01:23:19.213Z,3.27
2018-09-28T01:25:48.784Z,3.33
2018-09-28T01:28:17.944Z,3.70
2018-09-28T01:30:46.752Z,3.13
2018-09-28T01:33:15.601Z,3.87
2018-09-28T01:35:44.390Z,3.80
2018-09-28T01:38:13.185Z,3.50
2018-09-28T01:40:42.023Z,3.70
2018-09-28T01:43:10.893Z,3.77
2018-09-28T01:45:40.084Z,3.70
2018-09-28T01:48:08.924Z,4.07
2018-09-28T01:50:37.786Z,3.57
2018-09-28T01:53:06.638Z,4.00
2018-09-28T01:55:35.393Z,4.07
2018-09-28T01:58:04.203Z,3.87
2018-09-28T02:00:36.373Z,4.00
2018-09-28T02:03:05.194Z,3.57
2018-09-28T02:05:34.094Z,3.63
2018-09-28T02:08:02.921Z,4.17
2018-09-28T02:10:31.797Z,3.57
2018-09-28T02:13:00.540Z,4.30
2018-09-28T02:15:29.366Z,5.27
2018-09-28T02:17:58.084Z,3.90
2018-09-28T02:20:26.944Z,4.10
2018-09-28T02:22:55.754Z,4.17
2018-09-28T02:25:24.618Z,4.03
2018-09-28T02:27:53.534Z,5.20
2018-09-28T02:30:22.280Z,3.70
2018-09-28T02:32:51.068Z,5.53
2018-09-28T02:35:19.853Z,4.03
2018-09-28T02:37:48.645Z,4.43
2018-09-28T02:40:17.432Z,4.70
2018-09-28T02:42:46.223Z,4.33
2018-09-28T02:45:15.032Z,4.77
2018-09-28T02:47:43.845Z,4.53
2018-09-28T02:50:12.647Z,4.43
2018-09-28T02:52:41.460Z,5.20
2018-09-28T02:55:10.290Z,4.70
2018-09-28T02:57:39.161Z,5.07
2018-09-28T03:00:08.003Z,4.63
2018-09-28T03:02:36.792Z,4.60
2018-09-28T03:05:05.662Z,4.87
2018-09-28T03:07:34.418Z,4.63
2018-09-28T03:10:03.194Z,6.83
2018-09-28T03:12:32.028Z,4.97
2018-09-28T03:15:00.838Z,5.07
2018-09-28T03:17:29.775Z,5.00
2018-09-28T03:19:58.507Z,5.17
2018-09-28T03:22:32.086Z,4.63
2018-09-28T03:25:00.893Z,5.13
2018-09-28T03:27:29.744Z,6.67
2018-09-28T03:29:58.592Z,4.30
2018-09-28T03:32:27.344Z,5.03
2018-09-28T03:34:56.456Z,5.23
2018-09-28T03:37:25.154Z,5.40
2018-09-28T03:39:54.029Z,4.80
2018-09-28T03:42:22.881Z,4.33
2018-09-28T03:44:51.648Z,5.30
2018-09-28T03:47:20.462Z,5.43
2018-09-28T03:49:49.299Z,7.40
2018-09-28T03:52:18.150Z,5.20
2018-09-28T03:54:46.987Z,5.60
2018-09-28T03:57:15.941Z,5.63
2018-09-28T03:59:44.848Z,5.30
2018-09-28T04:02:13.670Z,5.50
2018-09-28T04:04:42.443Z,5.00
2018-09-28T04:07:11.259Z,4.90
2018-09-28T04:09:40.016Z,5.70
2018-09-28T04:12:09.207Z,5.50
2018-09-28T04:14:38.029Z,4.70
2018-09-28T04:17:06.853Z,4.80
2018-09-28T04:19:35.679Z,4.43
2018-09-28T04:22:04.585Z,4.73
2018-09-28T04:24:33.747Z,5.20
2018-09-28T04:27:02.568Z,4.87
2018-09-28T04:29:31.362Z,4.97
2018-09-28T04:32:00.272Z,4.83
2018-09-28T04:34:29.046Z,5.00
2018-09-28T04:36:57.793Z,4.80
2018-09-28T04:39:26.896Z,5.13
2018-09-28T04:41:56.094Z,4.70
2018-09-28T04:44:24.885Z,5.60
2018-09-28T04:46:53.656Z,5.20
2018-09-28T04:49:22.388Z,5.20
2018-09-28T04:51:51.178Z,4.93
2018-09-28T04:54:19.943Z,4.73
2018-09-28T04:56:48.775Z,5.13
2018-09-28T04:59:17.531Z,5.30
2018-09-28T05:01:46.727Z,5.67
2018-09-28T05:04:15.475Z,5.10
2018-09-28T05:06:44.279Z,5.97
2018-09-28T05:09:14.319Z,5.57
2018-09-28T05:11:43.416Z,5.70
2018-09-28T05:14:12.524Z,5.90
2018-09-28T05:16:41.664Z,5.97
2018-09-28T05:19:11.239Z,5.57
2018-09-28T05:21:40.138Z,6.27
2018-09-28T05:24:09.036Z,5.70
2018-09-28T05:26:37.806Z,6.20
2018-09-28T05:29:06.596Z,6.20
2018-09-28T05:31:35.388Z,6.33
2018-09-28T05:34:04.207Z,6.60
2018-09-28T05:36:33.291Z,6.10
2018-09-28T05:39:02.156Z,6.27
2018-09-28T05:41:30.960Z,6.70
2018-09-28T05:43:59.753Z,6.10
2018-09-28T05:46:28.647Z,6.77
2018-09-28T05:48:57.347Z,8.73
2018-09-28T05:51:26.169Z,6.47
2018-09-28T05:53:55.151Z,7.00
2018-09-28T05:56:24.012Z,6.07
2018-09-28T05:58:58.075Z,6.03
2018-09-28T06:01:32.034Z,7.33
2018-09-28T06:04:06.242Z,6.07
2018-09-28T06:06:36.022Z,6.20
2018-09-28T06:09:06.846Z,6.60
2018-09-28T06:11:35.962Z,6.60
2018-09-28T06:14:04.725Z,7.27
2018-09-28T06:16:33.593Z,6.97
2018-09-28T06:19:02.519Z,7.77
2018-09-28T06:21:31.303Z,8.73
2018-09-28T06:24:00.455Z,8.30
2018-09-28T06:26:29.315Z,8.60
2018-09-28T06:28:58.227Z,9.80
2018-09-28T06:31:26.999Z,9.97
2018-09-28T06:33:55.911Z,9.70
2018-09-28T06:36:24.769Z,9.70
2018-09-28T06:38:53.638Z,10.53
2018-09-28T06:41:22.487Z,9.70
2018-09-28T06:43:51.436Z,10.20
2018-09-28T06:46:20.381Z,9.90
2018-09-28T06:48:51.291Z,14.07
2018-09-28T06:51:20.125Z,11.30
2018-09-28T06:53:49.013Z,12.57
2018-09-28T06:56:17.922Z,12.47
2018-09-28T06:58:47.008Z,12.50
2018-09-28T07:01:15.966Z,12.67
2018-09-28T07:03:47.545Z,12.20
2018-09-28T07:06:16.392Z,11.50
2018-09-28T07:08:45.448Z,12.20
2018-09-28T07:11:18.788Z,13.30
2018-09-28T07:13:50.815Z,11.17
2018-09-28T07:16:21.250Z,13.10
2018-09-28T07:18:50.814Z,13.13
2018-09-28T07:21:19.996Z,12.93
2018-09-28T07:23:51.103Z,11.37
2018-09-28T07:26:27.934Z,11.87
2018-09-28T07:28:59.701Z,13.80
2018-09-28T07:31:28.725Z,14.97
2018-09-28T07:34:00.987Z,14.00
2018-09-28T07:36:30.756Z,14.20
2018-09-28T07:38:59.625Z,14.80
2018-09-28T07:41:28.959Z,15.50
2018-09-28T07:43:57.895Z,14.73
2018-09-28T07:46:27.356Z,15.17
2018-09-28T07:51:48.134Z,14.93
2018-09-28T07:54:17.038Z,15.60
2018-09-28T07:56:46.179Z,16.80
2018-09-28T07:59:15.102Z,17.77
2018-09-28T08:01:44.354Z,13.63
2018-09-28T08:04:15.145Z,13.07
2018-09-28T08:06:44.191Z,15.57
2018-09-28T08:09:13.025Z,17.87
2018-09-28T08:11:42.048Z,17.07
2018-09-28T08:14:13.612Z,16.47
2018-09-28T08:16:43.139Z,13.93
2018-09-28T08:19:12.214Z,16.37
2018-09-28T08:21:41.195Z,16.63
2018-09-28T08:24:10.831Z,14.37
2018-09-28T08:26:39.979Z,24.87
2018-09-28T08:29:08.750Z,27.97
2018-09-28T08:31:37.899Z,28.77
2018-09-28T08:34:07.423Z,28.07
2018-09-28T08:36:36.468Z,31.30
2018-09-28T08:39:07.396Z,34.23
2018-09-28T08:41:36.438Z,35.67
2018-09-28T08:44:05.405Z,35.43
2018-09-28T08:46:34.837Z,40.73
2018-09-28T08:49:04.626Z,27.70
2018-09-28T08:51:33.699Z,40.83
2018-09-28T08:54:02.645Z,43.73
2018-09-28T08:56:31.975Z,45.37
2018-09-28T08:59:00.922Z,46.23
2018-09-28T09:01:29.845Z,43.10
2018-09-28T09:03:58.859Z,39.30
2018-09-28T09:06:30.504Z,38.63
2018-09-28T09:09:00.136Z,44.43
2018-09-28T09:11:29.209Z,34.97
2018-09-28T09:13:58.329Z,30.57
2018-09-28T09:16:28.732Z,36.10
2018-09-28T09:18:58.805Z,33.23
2018-09-28T09:21:28.298Z,30.07
2018-09-28T09:23:57.543Z,34.00
2018-09-28T09:26:27.829Z,43.90
2018-09-28T09:28:57.218Z,40.63
2018-09-28T09:31:26.391Z,39.27
2018-09-28T09:33:56.628Z,42.03
2018-09-28T09:36:26.068Z,28.10
2018-09-28T09:38:54.899Z,47.10
2018-09-28T09:41:24.105Z,44.83
2018-09-28T09:43:53.903Z,35.87
2018-09-28T09:46:22.973Z,35.73
2018-09-28T09:48:51.889Z,43.23
2018-09-28T09:51:20.740Z,53.57
2018-09-28T09:53:49.742Z,52.33
2018-09-28T09:56:18.692Z,45.47
2018-09-28T09:58:49.072Z,36.33
2018-09-28T10:01:23.418Z,37.20
2018-09-28T10:03:54.663Z,31.00
2018-09-28T10:06:26.343Z,47.23
2018-09-28T10:08:55.946Z,34.63
2018-09-28T10:11:33.376Z,34.80
2018-09-28T10:14:04.480Z,38.20
2018-09-28T10:16:37.134Z,25.70
2018-09-28T10:19:08.665Z,31.90
2018-09-28T10:21:37.833Z,35.53
2018-09-28T10:24:09.175Z,35.40
2018-09-28T10:26:38.518Z,32.67
2018-09-28T10:29:07.589Z,43.23
2018-09-28T10:31:36.556Z,31.00
2018-09-28T10:34:05.400Z,21.37
2018-09-28T10:36:34.727Z,28.13
2018-09-28T10:39:03.715Z,25.47
2018-09-28T10:41:32.962Z,29.40
2018-09-28T10:44:01.842Z,25.33
2018-09-28T10:46:30.708Z,26.60
2018-09-28T10:48:59.605Z,17.57
2018-09-28T10:51:28.392Z,23.53
2018-09-28T10:53:57.470Z,16.53
2018-09-28T10:56:26.390Z,21.23
2018-09-28T10:58:55.319Z,19.00
2018-09-28T11:01:24.887Z,16.73
2018-09-28T11:04:00.409Z,32.13
2018-09-28T11:06:30.962Z,101.93
2018-09-28T11:09:01.010Z,72.83
2018-09-28T11:11:31.707Z,46.00
2018-09-28T11:14:00.654Z,24.13
2018-09-28T11:16:29.475Z,9.87
2018-09-28T11:18:58.879Z,9.70
2018-09-28T11:21:27.801Z,6.90
2018-09-28T11:23:56.577Z,5.47
2018-09-28T11:26:25.874Z,13.67
2018-09-28T11:28:54.706Z,2.80
2018-09-28T11:31:23.547Z,3.90
2018-09-28T11:33:54.043Z,5.97
2018-09-28T11:36:22.837Z,2.53
2018-09-28T11:38:52.151Z,3.20
2018-09-28T11:41:22.849Z,2.47
2018-09-28T11:43:51.591Z,2.10
2018-09-28T11:46:20.581Z,2.83
2018-09-28T11:48:50.785Z,2.53
2018-09-28T11:51:19.657Z,3.27
2018-09-28T11:53:48.486Z,3.23
2018-09-28T11:56:17.434Z,2.67
2018-09-28T11:58:47.354Z,2.30
2018-09-28T12:01:16.195Z,2.30
2018-09-28T12:03:45.106Z,2.30
2018-09-28T12:06:14.607Z,2.70
2018-09-28T12:08:43.442Z,2.10
2018-09-28T12:11:12.742Z,1.40
2018-09-28T12:13:41.573Z,1.70
2018-09-28T12:16:10.423Z,1.57
2018-09-28T12:18:39.474Z,2.07
2018-09-28T12:21:08.518Z,1.73
2018-09-28T12:23:37.560Z,1.20
2018-09-28T12:26:09.013Z,1.40
2018-09-28T12:28:37.958Z,1.43
2018-09-28T12:31:06.854Z,1.40
2018-09-28T12:33:35.670Z,1.90
2018-09-28T12:36:04.589Z,1.60
2018-09-28T12:38:36.143Z,1.60
2018-09-28T12:41:05.693Z,2.10
2018-09-28T12:43:35.032Z,1.90
2018-09-28T12:46:03.783Z,1.60
2018-09-28T12:48:34.662Z,2.30
2018-09-28T12:51:04.123Z,2.30
2018-09-28T12:53:33.001Z,1.83
2018-09-28T12:56:01.863Z,1.50
2018-09-28T12:58:30.990Z,2.27
2018-09-28T13:00:59.958Z,1.80
2018-09-28T13:03:29.039Z,2.27
2018-09-28T13:05:57.923Z,1.80
2018-09-28T13:08:26.758Z,2.13
2018-09-28T13:10:55.811Z,2.03
2018-09-28T13:13:24.593Z,2.30
2018-09-28T13:15:54.519Z,1.67
2018-09-28T13:18:23.380Z,2.50
2018-09-28T13:20:52.600Z,2.37
2018-09-28T13:23:21.438Z,1.97
2018-09-28T13:25:50.289Z,2.03
2018-09-28T13:28:19.154Z,2.70
2018-09-28T13:30:48.092Z,1.60
2018-09-28T13:33:16.975Z,2.20
2018-09-28T13:35:45.864Z,1.17
2018-09-28T13:38:14.748Z,2.30
2018-09-28T13:40:43.845Z,3.07
2018-09-28T13:43:12.692Z,2.13
2018-09-28T13:45:42.042Z,2.63
2018-09-28T13:48:11.478Z,2.37
2018-09-28T13:50:41.911Z,1.37
2018-09-28T13:53:11.033Z,1.67
2018-09-28T13:55:39.856Z,2.40
2018-09-28T13:58:08.693Z,2.03
2018-09-28T14:00:37.540Z,2.03
2018-09-28T14:03:06.658Z,2.83
2018-09-28T14:05:40.327Z,2.23
2018-09-28T14:08:11.338Z,2.20
2018-09-28T14:10:40.140Z,2.37
2018-09-28T14:16:00.099Z,2.50
2018-09-28T14:18:29.043Z,1.60
2018-09-28T14:20:57.796Z,2.23
2018-09-28T14:23:26.607Z,1.80
2018-09-28T14:25:55.450Z,1.60
2018-09-28T14:28:24.419Z,1.63
2018-09-28T14:30:53.179Z,1.60
2018-09-28T14:33:43.997Z,2.87
2018-09-28T14:36:12.898Z,2.10
2018-09-28T14:38:41.802Z,2.33
2018-09-28T14:41:10.670Z,2.17
2018-09-28T14:43:39.487Z,1.57
2018-09-28T14:46:08.757Z,1.93
2018-09-28T14:48:37.731Z,2.03
2018-09-28T14:51:06.710Z,1.97
2018-09-28T14:53:35.475Z,1.63
2018-09-28T14:56:04.340Z,1.53
2018-09-28T14:58:33.857Z,2.27
2018-09-28T15:01:02.942Z,1.80
2018-09-28T15:03:31.841Z,1.93
2018-09-28T15:06:00.833Z,1.90
2018-09-28T15:08:30.000Z,1.50
2018-09-28T15:10:58.853Z,1.67
2018-09-28T15:13:27.965Z,2.13
2018-09-28T15:15:56.761Z,2.17
2018-09-28T15:18:31.637Z,1.90
2018-09-28T15:21:00.977Z,1.47
2018-09-28T15:23:30.719Z,1.90
2018-09-28T15:25:59.935Z,1.80
2018-09-28T15:28:28.846Z,1.80
2018-09-28T15:30:57.941Z,2.17
2018-09-28T15:33:33.883Z,1.80
2018-09-28T15:36:02.799Z,2.03
2018-09-28T15:38:31.637Z,2.30
2018-09-28T15:41:00.454Z,2.40
2018-09-28T15:43:29.296Z,2.00
2018-09-28T15:45:58.085Z,2.17
2018-09-28T15:48:27.568Z,2.50
2018-09-28T15:50:56.335Z,1.70
2018-09-28T15:53:25.239Z,1.60
2018-09-28T15:55:54.702Z,2.17
2018-09-28T15:58:24.020Z,1.50
2018-09-28T16:00:52.930Z,1.77
2018-09-28T16:03:23.331Z,1.20
2018-09-28T16:05:52.552Z,2.30
2018-09-28T16:08:21.630Z,1.90
2018-09-28T16:10:50.566Z,2.07
2018-09-28T16:13:21.534Z,1.50
2018-09-28T16:15:51.092Z,1.30
2018-09-28T16:18:19.981Z,1.67
2018-09-28T16:20:48.908Z,2.30
2018-09-28T16:23:17.803Z,1.77
2018-09-28T16:25:46.726Z,1.70
2018-09-28T16:28:15.591Z,1.70
2018-09-28T16:30:44.959Z,2.00
2018-09-28T16:33:13.746Z,2.07
2018-09-28T16:35:42.705Z,1.87
2018-09-28T16:38:11.602Z,1.93
2018-09-28T16:40:40.471Z,1.50
2018-09-28T16:43:13.544Z,2.03
2018-09-28T16:45:42.352Z,1.90
2018-09-28T16:48:12.651Z,1.97
2018-09-28T16:50:43.826Z,2.10
2018-09-28T16:53:13.199Z,1.90
2018-09-28T16:55:42.106Z,2.50
2018-09-28T16:58:11.550Z,2.23
2018-09-28T17:00:40.396Z,2.63
2018-09-28T17:03:09.946Z,2.10
2018-09-28T17:05:38.872Z,1.40
2018-09-28T17:08:07.926Z,1.90
2018-09-28T17:10:36.824Z,1.90
2018-09-28T17:13:05.784Z,2.03
2018-09-28T17:15:34.662Z,2.13
2018-09-28T17:18:03.779Z,2.10
2018-09-28T17:20:32.560Z,2.57
2018-09-28T17:23:02.569Z,2.20
2018-09-28T17:25:31.319Z,2.67
2018-09-28T17:28:00.128Z,4.53
2018-09-28T17:30:28.993Z,10.27
2018-09-28T17:32:57.839Z,7.50
2018-09-28T17:35:27.564Z,4.37
2018-09-28T17:37:58.028Z,3.33
2018-09-28T17:40:28.455Z,3.30
2018-09-28T17:42:59.424Z,3.70
2018-09-28T17:45:31.975Z,3.00
2018-09-28T17:48:01.459Z,2.87
2018-09-28T17:50:30.268Z,3.20
2018-09-28T17:53:01.403Z,3.20
2018-09-28T17:55:30.979Z,3.17
2018-09-28T17:58:01.339Z,2.73
2018-09-28T18:00:30.191Z,2.67
2018-09-28T18:02:58.946Z,2.60
2018-09-28T18:05:33.736Z,3.23
2018-09-28T18:08:02.715Z,3.37
2018-09-28T18:10:31.948Z,2.73
2018-09-28T18:13:00.809Z,2.73
2018-09-28T18:15:29.725Z,2.73
2018-09-28T18:17:58.558Z,3.10
2018-09-28T18:20:27.519Z,3.23
2018-09-28T18:22:56.445Z,3.87
2018-09-28T18:25:25.272Z,5.47
2018-09-28T18:27:54.091Z,5.60
2018-09-28T18:30:22.963Z,6.30
2018-09-28T18:32:51.666Z,5.60
2018-09-28T18:35:22.497Z,5.63
2018-09-28T18:37:51.328Z,4.00
2018-09-28T18:40:20.325Z,4.10
2018-09-28T18:42:50.543Z,4.30
2018-09-28T18:45:19.503Z,7.70
2018-09-28T18:47:48.703Z,5.80
2018-09-28T18:50:20.067Z,5.17
2018-09-28T18:52:48.907Z,6.37
2018-09-28T18:55:19.638Z,5.63
2018-09-28T18:57:48.714Z,4.53
2018-09-28T19:00:19.503Z,4.70
2018-09-28T19:02:48.315Z,4.33
2018-09-28T19:05:20.868Z,4.57
2018-09-28T19:07:49.716Z,16.30
2018-09-28T19:10:19.301Z,12.93
2018-09-28T19:12:55.700Z,5.37
2018-09-28T19:15:24.719Z,4.57
2018-09-28T19:17:54.931Z,3.90
2018-09-28T19:23:25.184Z,4.87
2018-09-28T19:25:54.055Z,6.23
2018-09-28T19:28:23.145Z,5.13
2018-09-28T19:30:53.211Z,5.23
2018-09-28T19:33:24.533Z,5.47
2018-09-28T19:35:54.465Z,8.77
2018-09-28T19:38:23.797Z,4.30
2018-09-28T19:40:56.331Z,5.63
2018-09-28T19:43:25.431Z,7.20
2018-09-28T19:45:54.406Z,5.20
2018-09-28T19:48:23.528Z,4.63
2018-09-28T19:50:52.789Z,5.80
2018-09-28T19:53:22.544Z,5.03
2018-09-28T19:55:51.393Z,6.47
2018-09-28T19:58:20.325Z,6.77
2018-09-28T20:00:49.432Z,5.63
2018-09-28T20:03:18.632Z,5.50
2018-09-28T20:05:47.599Z,5.80
2018-09-28T20:08:16.538Z,7.87
2018-09-28T20:10:46.133Z,5.63
2018-09-28T20:13:15.034Z,6.03
2018-09-28T20:15:44.006Z,5.70
2018-09-28T20:18:12.853Z,5.17
2018-09-28T20:20:41.875Z,6.00
2018-09-28T20:23:10.858Z,5.60
2018-09-28T20:25:39.946Z,5.20
2018-09-28T20:28:08.944Z,5.90
2018-09-28T20:30:39.789Z,5.73
2018-09-28T20:33:08.885Z,5.57
2018-09-28T20:35:37.748Z,6.60
2018-09-28T20:38:09.206Z,8.13
2018-09-28T20:40:40.319Z,8.00
2018-09-28T20:43:13.004Z,6.53
2018-09-28T20:45:42.038Z,8.63
2018-09-28T20:48:11.488Z,9.00
2018-09-28T20:50:41.803Z,6.53
2018-09-28T20:53:11.222Z,5.10
2018-09-28T20:55:41.423Z,5.60
2018-09-28T20:58:11.282Z,6.30
2018-09-28T21:00:42.157Z,6.23
2018-09-28T21:03:11.548Z,6.77
2018-09-28T21:05:40.652Z,8.03
2018-09-28T21:08:09.728Z,6.17
2018-09-28T21:10:38.647Z,5.57
2018-09-28T21:13:07.590Z,5.10
2018-09-28T21:15:36.526Z,6.60
2018-09-28T21:18:05.457Z,3.63
2018-09-28T21:20:34.382Z,4.57
2018-09-28T21:23:04.369Z,9.50
2018-09-28T21:25:33.237Z,6.70
2018-09-28T21:28:02.026Z,6.50
2018-09-28T21:30:30.789Z,8.47
2018-09-28T21:33:00.112Z,5.17
2018-09-28T21:35:28.930Z,5.97
2018-09-28T21:37:57.758Z,6.17
2018-09-28T21:40:26.574Z,5.63
2018-09-28T21:42:55.534Z,5.67
2018-09-28T21:45:24.266Z,4.90
2018-09-28T21:47:53.081Z,4.53
2018-09-28T21:50:21.922Z,6.10
2018-09-28T21:52:51.000Z,4.67
2018-09-28T21:55:21.104Z,4.40
2018-09-28T21:57:50.067Z,6.07
2018-09-28T22:00:18.875Z,7.53
2018-09-28T22:02:47.676Z,5.67
2018-09-28T22:05:16.696Z,6.00
2018-09-28T22:07:45.930Z,5.73
2018-09-28T22:10:14.870Z,4.50
2018-09-28T22:12:43.634Z,5.17
2018-09-28T22:15:12.422Z,3.83
2018-09-28T22:17:41.163Z,3.63
2018-09-28T22:20:10.141Z,4.40
2018-09-28T22:22:38.957Z,4.97
2018-09-28T22:25:07.802Z,4.00
2018-09-28T22:27:36.565Z,4.23
2018-09-28T22:30:05.487Z,4.50
2018-09-28T22:32:34.225Z,3.90
2018-09-28T22:35:03.098Z,4.20
2018-09-28T22:37:31.855Z,4.77
2018-09-28T22:40:00.710Z,5.50
2018-09-28T22:42:29.971Z,4.10
2018-09-28T22:44:58.746Z,4.63
2018-09-28T22:47:27.621Z,5.67
2018-09-28T22:49:56.475Z,4.67
2018-09-28T22:52:35.025Z,5.17
2018-09-28T22:55:03.839Z,6.30
2018-09-28T22:57:32.698Z,4.43
2018-09-28T23:00:01.533Z,5.10
2018-09-28T23:02:30.375Z,4.17
2018-09-28T23:04:59.206Z,5.20
2018-09-28T23:07:28.063Z,4.70
2018-09-28T23:09:56.843Z,3.90
2018-09-28T23:12:27.751Z,4.00
2018-09-28T23:14:56.654Z,3.93
2018-09-28T23:17:25.469Z,4.30
2018-09-28T23:19:54.377Z,3.77
2018-09-28T23:22:23.210Z,4.03
2018-09-28T23:24:52.149Z,4.33
2018-09-28T23:27:20.884Z,4.07
2018-09-28T23:29:49.699Z,3.70
2018-09-28T23:32:18.569Z,3.77
2018-09-28T23:34:47.339Z,3.87
2018-09-28T23:37:16.131Z,3.83
2018-09-28T23:39:44.962Z,4.40
2018-09-28T23:42:13.732Z,3.57
2018-09-28T23:44:44.446Z,4.53
2018-09-28T23:47:13.321Z,4.47
2018-09-28T23:49:42.124Z,5.37
2018-09-28T23:52:10.869Z,7.37
2018-09-28T23:54:39.696Z,5.33
2018-09-28T23:57:08.505Z,6.47
2018-09-28T23:59:37.320Z,4.07
